Flight Track Log - Related Links

Times and Time Zones

All times are in EDT time to prevent confusion due to time zone crossing. See the N56LN flight status page for this flight to view local times or setup timezone preferences in your user account.

Time Position Orientation Groundspeed Altitude Reporting Facility
EDT Latitude Longitude Course Direction KTS MPH feet Rate Location/Type
Thu 10:17:41 PM 37.7300 -97.2264 193° South 149 171 2,100  Level Kansas City Center
Thu 10:18:11 PM 37.7069 -97.2333 183° South 164 189 2,600 1,846 Climbing Kansas City Center
Thu 10:19:12 PM 37.6506 -97.2367 201° Southwest 216 249 4,900 2,591 Climbing Kansas City Center
Thu 10:20:23 PM 37.5744 -97.2731 199° South 243 280 8,300 2,931 Climbing Kansas City Center
Thu 10:21:23 PM 37.5008 -97.3044 200° South 261 300 11,300 2,850 Climbing Kansas City Center
Thu 10:22:23 PM 37.4228 -97.3408 199° South 282 325 14,000 2,700 Climbing Kansas City Center
Thu 10:23:23 PM 37.3469 -97.3744 183° South 290 334 16,700 2,650 Climbing Kansas City Center
Thu 10:24:23 PM 37.2633 -97.3792 163° South 302 348 19,300 2,450 Climbing Kansas City Center
Thu 10:25:23 PM 37.1744 -97.3447 161° South 313 360 21,600 2,150 Climbing Kansas City Center
Thu 10:26:23 PM 37.0836 -97.3047 160° South 327 376 23,600 1,950 Climbing Kansas City Center
Thu 10:27:23 PM 36.9886 -97.2622 150° Southeast 350 403 25,500 1,800 Climbing Kansas City Center
Thu 10:28:23 PM 36.8983 -97.1967 142° Southeast 363 418 27,200 1,500 Climbing Kansas City Center
Thu 10:29:23 PM 36.8144 -97.1161 147° Southeast 370 426 28,500 1,400 Climbing Kansas City Center
Thu 10:30:23 PM 36.7203 -97.0403 148° Southeast 388 447 30,000 750 Climbing Kansas City Center
Thu 10:31:23 PM 36.6175 -96.9592 146° Southeast 415 478 30,000  Level Kansas City Center
Thu 10:32:23 PM 36.5192 -96.8761 147° Southeast 439 505 30,000  Level Kansas City Center
Thu 10:33:23 PM 36.4103 -96.7875 147° Southeast 460 529 30,000  Level Kansas City Center
Thu 10:34:23 PM 36.2889 -96.6886 146° Southeast 472 543 30,000  Level Kansas City Center
Thu 10:35:23 PM 36.1822 -96.5983 147° Southeast 477 549 30,000  Level Kansas City Center
Thu 10:37:04 PM 36.0094 -96.4592 147° Southeast 497 572 30,000  Level Fort Worth Center
Thu 10:38:04 PM 35.8981 -96.3683 148° Southeast 491 565 30,000  Level Fort Worth Center
Thu 10:39:04 PM 35.7869 -96.2828 147° Southeast 485 558 30,000  Level Fort Worth Center
Thu 10:40:04 PM 35.6778 -96.1947 147° Southeast 485 558 30,000  Level Fort Worth Center
Thu 10:41:04 PM 35.5558 -96.0969 147° Southeast 485 558 30,000 -200 Level Fort Worth Center
Thu 10:42:04 PM 35.4464 -96.0094 176° South 485 558 29,600 -550 Descending Fort Worth Center
Thu 10:43:04 PM 35.3275 -95.9989 188° South 425 489 28,900 -950 Descending Fort Worth Center
Thu 10:44:04 PM 35.2047 -96.0211 189° South 430 495 27,700 -1,200 Descending Fort Worth Center
Thu 10:45:04 PM 35.0817 -96.0436 187° South 441 507 26,500 -1,050 Descending Fort Worth Center
Thu 10:46:04 PM 34.9714 -96.0606 188° South 446 513 25,600 -1,050 Descending Fort Worth Center
Thu 10:47:04 PM 34.8528 -96.0800 188° South 446 513 24,400 -1,200 Descending Fort Worth Center
Thu 10:48:04 PM 34.7319 -96.0997 188° South 446 513 23,200 -1,150 Descending Fort Worth Center
Thu 10:49:04 PM 34.6133 -96.1192 187° South 446 513 22,100 -850 Descending Fort Worth Center
Thu 10:50:04 PM 34.4986 -96.1358 188° South 440 506 21,500 -900 Descending Fort Worth Center
Thu 10:51:04 PM 34.3717 -96.1581 188° South 435 501 20,300 -1,200 Descending Fort Worth Center
Thu 10:52:04 PM 34.2550 -96.1772 189° South 428 493 19,100 -1,200 Descending Fort Worth Center
Thu 10:53:04 PM 34.1383 -96.1989 187° South 423 487 17,900 -1,100 Descending Fort Worth Center
Thu 10:54:04 PM 34.0425 -96.2128 189° South 414 476 16,900 -1,100 Descending Fort Worth Center
Thu 10:55:04 PM 33.9319 -96.2344 186° South 409 471 15,700 -1,250 Descending Fort Worth Center
Thu 10:56:04 PM 33.8050 -96.2511 186° South 409 471 14,400 -1,150 Descending Fort Worth Center
Thu 10:57:04 PM 33.6964 -96.2650 191° South 409 471 13,400 -1,082 Descending Fort Worth Center
Thu 10:58:06 PM 33.5972 -96.2881 187° South 381 438 12,200 -1,129 Descending FAA TRACON SMA TRACON (SMA)
Thu 10:58:45 PM 33.5328 -96.2981 186° South 343 395 11,500 -911 Descending FAA TRACON SMA TRACON (SMA)
Thu 10:59:25 PM 33.4808 -96.3044 187° South 307 353 11,000 -750 Descending FAA TRACON SMA TRACON (SMA)
Thu 11:00:05 PM 33.4247 -96.3131 187° South 293 337 10,500 -835 Descending FAA TRACON SMA TRACON (SMA)
Thu 11:00:44 PM 33.3689 -96.3211 192° South 293 337 9,900 -825 Descending FAA TRACON SMA TRACON (SMA)
Thu 11:01:25 PM 33.3214 -96.3331 225° Southwest 289 333 9,400 -889 Descending FAA TRACON SMA TRACON (SMA)
Thu 11:02:05 PM 33.2822 -96.3794 229° Southwest 287 330 8,700 -1,050 Descending FAA TRACON SMA TRACON (SMA)
Thu 11:02:45 PM 33.2461 -96.4283 230° Southwest 283 326 8,000 -987 Descending FAA TRACON SMA TRACON (SMA)
Thu 11:03:24 PM 33.2156 -96.4719 230° Southwest 278 320 7,400 -975 Descending FAA TRACON SMA TRACON (SMA)
Thu 11:04:05 PM 33.1814 -96.5206 230° Southwest 274 315 6,700 -1,000 Descending FAA TRACON SMA TRACON (SMA)
Thu 11:04:48 PM 33.1478 -96.5678 231° Southwest 269 310 6,000 -975 Descending FAA TRACON SMA TRACON (SMA)
Thu 11:05:25 PM 33.1192 -96.6100 231° Southwest 265 305 5,400 -1,000 Descending FAA TRACON SMA TRACON (SMA)
Thu 11:06:06 PM 33.0900 -96.6533 229° Southwest 238 274 4,700 -1,000 Descending FAA TRACON SMA TRACON (SMA)
Thu 11:06:49 PM 33.0619 -96.6914 230° Southwest 218 251 4,000 -675 Descending FAA TRACON SMA TRACON (SMA)
Thu 11:07:26 PM 33.0350 -96.7300 231° Southwest 217 250 3,800 -623 Descending FAA TRACON SMA TRACON (SMA)
Thu 11:08:06 PM 33.0128 -96.7622 231° Southwest 205 236 3,200 -675 Descending FAA TRACON SMA TRACON (SMA)
Thu 11:08:46 PM 32.9889 -96.7975 230° Southwest 200 230 2,900 -225 Descending FAA TRACON SMA TRACON (SMA)
Thu 11:09:26 PM 32.9644 -96.8317 230° Southwest 203 234 2,900 -375 Level FAA TRACON SMA TRACON (SMA)
Thu 11:10:06 PM 32.9433 -96.8611 228° Southwest 192 221 2,400 -750 Descending FAA TRACON SMA TRACON (SMA)
Thu 11:10:46 PM 32.9231 -96.8878 212° Southwest 150 173 1,900 -684 Descending FAA TRACON SMA TRACON (SMA)
Thu 11:11:25 PM 32.9056 -96.9008 152° Southeast 121 139 1,500 -450 Descending FAA TRACON SMA TRACON (SMA)
Thu 11:12:06 PM 32.8878 -96.8894 137° Southeast 103 119 1,300 -444 Descending FAA TRACON SMA TRACON (SMA)
Thu 11:12:46 PM 32.8733 -96.8733 135° Southeast 103 119 900 -600 Descending FAA TRACON SMA TRACON (SMA)
Thu 11:13:26 PM 32.8589 -96.8561 135° Southeast 108 124 500 -600 Descending FAA TRACON SMA TRACON (SMA)

Login

Don't have an account? Register now (free) for customized features, flight alerts, and more!